createdAt,value
2019-05-10T00:00:07.732Z,13.37
2019-05-10T00:02:54.270Z,13.36
2019-05-10T00:05:40.889Z,13.35
2019-05-10T00:08:27.417Z,13.29
2019-05-10T00:11:27.193Z,13.22
2019-05-10T00:14:02.323Z,13.28
2019-05-10T00:16:30.848Z,13.38
2019-05-10T00:18:59.601Z,13.46
2019-05-10T00:21:28.121Z,13.49
2019-05-10T00:23:56.655Z,13.48
2019-05-10T00:26:25.187Z,13.36
2019-05-10T00:28:53.708Z,13.50
2019-05-10T00:31:22.231Z,13.60
2019-05-10T00:33:50.735Z,13.64
2019-05-10T00:36:19.377Z,13.67
2019-05-10T00:38:47.884Z,13.59
2019-05-10T00:41:16.408Z,13.54
2019-05-10T00:43:44.919Z,13.44
2019-05-10T00:46:13.448Z,13.35
2019-05-10T00:48:41.970Z,13.33
2019-05-10T00:51:10.563Z,13.38
2019-05-10T00:53:39.398Z,13.30
2019-05-10T00:56:07.918Z,13.20
2019-05-10T00:58:36.415Z,13.26
2019-05-10T01:01:05.002Z,13.21
2019-05-10T01:03:33.527Z,13.14
2019-05-10T01:06:02.068Z,13.07
2019-05-10T01:08:30.919Z,13.02
2019-05-10T01:10:59.495Z,12.78
2019-05-10T01:13:28.036Z,12.85
2019-05-10T01:15:56.591Z,12.83
2019-05-10T01:18:25.107Z,12.84
2019-05-10T01:20:53.933Z,12.77
2019-05-10T01:23:22.465Z,12.71
2019-05-10T01:25:50.977Z,12.71
2019-05-10T01:28:19.491Z,12.81
2019-05-10T01:30:48.167Z,12.76
2019-05-10T01:33:16.707Z,12.60
2019-05-10T01:35:45.212Z,12.59
2019-05-10T01:38:13.734Z,12.57
2019-05-10T01:40:42.239Z,12.64
2019-05-10T01:43:10.740Z,12.65
2019-05-10T01:45:39.240Z,12.67
2019-05-10T01:48:07.756Z,12.67
2019-05-10T01:50:36.355Z,12.65
2019-05-10T01:53:05.311Z,12.63
2019-05-10T01:55:33.815Z,12.63
2019-05-10T01:58:02.350Z,12.62
2019-05-10T02:00:30.870Z,12.59
2019-05-10T02:02:59.657Z,12.57
2019-05-10T02:05:28.174Z,12.58
2019-05-10T02:07:56.660Z,12.55
2019-05-10T02:10:25.163Z,12.51
2019-05-10T02:12:53.680Z,12.48
2019-05-10T02:15:22.192Z,12.40
2019-05-10T02:17:50.789Z,11.97
2019-05-10T02:20:19.299Z,12.10
2019-05-10T02:22:47.828Z,12.13
2019-05-10T02:25:16.353Z,12.06
2019-05-10T02:27:44.867Z,12.05
2019-05-10T02:30:13.420Z,12.05
2019-05-10T02:32:41.981Z,12.02
2019-05-10T02:35:10.494Z,11.98
2019-05-10T02:37:39.026Z,11.96
2019-05-10T02:40:08.397Z,11.94
2019-05-10T02:42:36.921Z,11.89
2019-05-10T02:45:05.750Z,11.86
2019-05-10T02:47:34.291Z,11.84
2019-05-10T02:50:02.955Z,11.83
2019-05-10T02:52:31.430Z,11.79
2019-05-10T02:54:59.919Z,11.71
2019-05-10T02:57:28.434Z,11.73
2019-05-10T02:59:56.940Z,11.75
2019-05-10T03:02:25.488Z,11.71
2019-05-10T03:04:54.109Z,11.68
2019-05-10T03:07:22.920Z,11.64
2019-05-10T03:09:51.441Z,11.62
2019-05-10T03:12:24.141Z,11.61
2019-05-10T03:14:57.269Z,11.59
2019-05-10T03:17:26.170Z,11.57
2019-05-10T03:19:54.835Z,11.54
2019-05-10T03:22:24.721Z,11.53
2019-05-10T03:24:53.501Z,11.52
2019-05-10T03:27:22.020Z,11.49
2019-05-10T03:29:50.587Z,11.48
2019-05-10T03:32:19.294Z,11.46
2019-05-10T03:34:47.867Z,11.44
2019-05-10T03:37:16.352Z,11.42
2019-05-10T03:39:44.916Z,11.44
2019-05-10T03:42:13.338Z,11.52
2019-05-10T03:44:41.846Z,11.58
2019-05-10T03:47:10.329Z,11.65
2019-05-10T03:49:39.278Z,11.71
2019-05-10T03:52:07.767Z,11.73
2019-05-10T03:54:36.304Z,11.71
2019-05-10T03:57:12.793Z,11.69
2019-05-10T03:59:35.037Z,11.67
2019-05-10T04:02:03.528Z,11.67
2019-05-10T04:04:32.039Z,11.66
2019-05-10T04:07:00.552Z,11.67
2019-05-10T04:09:29.041Z,11.69
2019-05-10T04:11:57.615Z,11.73
2019-05-10T04:14:26.186Z,11.80
2019-05-10T04:16:54.698Z,11.90
2019-05-10T04:19:23.503Z,12.04
2019-05-10T04:21:52.083Z,12.18
2019-05-10T04:24:20.913Z,12.36
2019-05-10T04:26:49.440Z,12.51
2019-05-10T04:29:17.970Z,12.68
2019-05-10T04:31:46.480Z,12.81
2019-05-10T04:34:15.052Z,12.92
2019-05-10T04:36:43.635Z,13.06
2019-05-10T04:39:12.449Z,13.22
2019-05-10T04:41:41.011Z,13.38
2019-05-10T04:44:09.935Z,13.34
2019-05-10T04:46:38.418Z,13.44
2019-05-10T04:49:07.036Z,13.60
2019-05-10T04:51:35.522Z,13.71
2019-05-10T04:54:04.055Z,13.74
2019-05-10T04:56:32.566Z,13.99
2019-05-10T04:59:01.088Z,14.11
2019-05-10T05:01:29.677Z,14.29
2019-05-10T05:03:58.157Z,14.21
2019-05-10T05:06:26.660Z,14.42
2019-05-10T05:08:55.161Z,14.59
2019-05-10T05:11:23.702Z,14.85
2019-05-10T05:13:52.191Z,15.12
2019-05-10T05:16:20.778Z,15.38
2019-05-10T05:18:49.440Z,15.63
2019-05-10T05:21:17.931Z,15.76
2019-05-10T05:23:46.410Z,16.08
2019-05-10T05:26:14.891Z,16.19
2019-05-10T05:28:43.388Z,16.40
2019-05-10T05:31:11.868Z,16.67
2019-05-10T05:33:40.355Z,16.92
2019-05-10T05:36:08.865Z,16.71
2019-05-10T05:38:40.464Z,17.10
2019-05-10T05:41:07.623Z,17.44
2019-05-10T05:43:45.337Z,17.59
2019-05-10T05:46:06.455Z,17.64
2019-05-10T05:48:40.296Z,17.83
2019-05-10T05:51:05.164Z,17.75
2019-05-10T05:53:35.908Z,17.33
2019-05-10T05:56:12.799Z,17.25
2019-05-10T05:58:37.974Z,17.11
2019-05-10T06:01:04.408Z,17.13
2019-05-10T06:03:32.916Z,16.84
2019-05-10T06:06:01.506Z,17.02
2019-05-10T06:08:30.377Z,16.89
2019-05-10T06:10:59.984Z,17.14
2019-05-10T06:13:31.019Z,17.32
2019-05-10T06:16:00.434Z,17.15
2019-05-10T06:18:29.367Z,17.54
2019-05-10T06:20:58.175Z,18.03
2019-05-10T06:23:29.135Z,17.71
2019-05-10T06:25:57.295Z,18.07
2019-05-10T06:28:42.947Z,18.26
2019-05-10T06:30:56.685Z,18.66
2019-05-10T06:33:25.207Z,19.28
2019-05-10T06:35:53.990Z,19.49
2019-05-10T06:38:22.513Z,20.48
2019-05-10T06:40:51.010Z,21.05
2019-05-10T06:43:19.509Z,21.94
2019-05-10T06:45:52.570Z,23.35
2019-05-10T06:48:25.957Z,24.59
2019-05-10T06:50:48.724Z,25.45
2019-05-10T06:53:17.281Z,24.28
2019-05-10T06:55:45.761Z,24.51
2019-05-10T06:58:14.337Z,26.74
2019-05-10T07:00:44.655Z,26.15
2019-05-10T07:03:13.055Z,27.72
2019-05-10T07:05:41.550Z,27.71
2019-05-10T07:08:19.726Z,26.40
2019-05-10T07:10:40.272Z,24.85
2019-05-10T07:13:08.799Z,23.91
2019-05-10T07:15:42.006Z,24.41
2019-05-10T07:18:07.832Z,23.71
2019-05-10T07:20:36.361Z,23.10
2019-05-10T07:23:06.092Z,22.45
2019-05-10T07:25:37.932Z,22.19
2019-05-10T07:28:09.570Z,22.03
2019-05-10T07:30:36.542Z,21.88
2019-05-10T07:33:05.071Z,22.14
2019-05-10T07:35:36.916Z,21.52
2019-05-10T07:41:32.375Z,21.53
2019-05-10T07:44:08.106Z,22.26
2019-05-10T07:46:31.176Z,22.90
2019-05-10T07:48:59.713Z,22.54
2019-05-10T07:51:28.778Z,22.92
2019-05-10T07:54:04.786Z,24.08
2019-05-10T07:56:28.712Z,25.40
2019-05-10T07:59:00.467Z,24.96
2019-05-10T08:01:32.174Z,26.33
2019-05-10T08:03:59.179Z,26.85
2019-05-10T08:06:33.903Z,27.38
2019-05-10T08:09:01.919Z,26.80
2019-05-10T08:11:28.661Z,26.30
2019-05-10T08:14:05.856Z,26.99
2019-05-10T08:16:29.050Z,28.11
2019-05-10T08:19:00.966Z,28.81
2019-05-10T08:23:59.029Z,30.07
2019-05-10T08:26:25.528Z,29.75
2019-05-10T08:28:54.031Z,28.38
2019-05-10T08:31:25.938Z,27.91
2019-05-10T08:33:58.340Z,28.50
2019-05-10T08:36:22.943Z,29.48
2019-05-10T08:39:04.977Z,30.46
2019-05-10T08:44:16.579Z,30.91
2019-05-10T08:46:41.204Z,30.50
2019-05-10T08:49:07.276Z,30.38
2019-05-10T08:51:44.185Z,29.62
2019-05-10T08:54:06.044Z,30.68
2019-05-10T08:56:34.634Z,31.13
2019-05-10T08:59:04.045Z,30.38
2019-05-10T09:01:42.815Z,29.40
2019-05-10T09:04:06.887Z,29.13
2019-05-10T09:06:33.259Z,29.08
2019-05-10T09:09:03.566Z,30.90
2019-05-10T09:11:32.815Z,31.59
2019-05-10T09:14:03.212Z,32.01
2019-05-10T09:16:39.186Z,32.90
2019-05-10T09:19:02.647Z,31.08
2019-05-10T09:21:32.199Z,30.65
2019-05-10T09:24:03.402Z,31.49
2019-05-10T09:26:32.185Z,30.83
2019-05-10T09:29:01.636Z,29.95
2019-05-10T09:31:32.691Z,29.44
2019-05-10T09:34:02.480Z,29.09
2019-05-10T09:36:36.035Z,29.56
2019-05-10T09:39:03.369Z,29.50
2019-05-10T09:41:36.068Z,28.23
2019-05-10T09:44:03.026Z,28.39
2019-05-10T09:46:32.445Z,28.54
2019-05-10T09:49:13.722Z,29.06
2019-05-10T09:51:33.122Z,27.94
2019-05-10T09:54:01.529Z,28.10
2019-05-10T09:56:32.981Z,28.10
2019-05-10T09:59:00.733Z,28.65
2019-05-10T10:01:29.264Z,27.98
2019-05-10T10:04:01.658Z,26.78
2019-05-10T10:06:29.853Z,26.64
2019-05-10T10:09:01.040Z,26.41
2019-05-10T10:11:28.720Z,26.02
2019-05-10T10:14:00.021Z,27.15
2019-05-10T10:16:28.176Z,27.78
2019-05-10T10:18:56.840Z,27.45
2019-05-10T10:21:34.940Z,28.47
2019-05-10T10:23:59.951Z,29.03
2019-05-10T10:26:26.887Z,27.70
2019-05-10T10:28:59.508Z,28.79
2019-05-10T10:31:30.462Z,30.38
2019-05-10T10:33:59.650Z,32.41
2019-05-10T10:36:27.448Z,32.17
2019-05-10T10:38:56.212Z,31.58
2019-05-10T10:41:31.194Z,29.41
2019-05-10T10:43:55.019Z,27.84
2019-05-10T10:46:23.598Z,27.16
2019-05-10T10:48:52.111Z,27.94
2019-05-10T10:51:20.633Z,27.89
2019-05-10T10:53:49.199Z,27.71
2019-05-10T10:56:17.773Z,28.07
2019-05-10T10:58:49.577Z,27.84
2019-05-10T11:01:21.707Z,27.01
2019-05-10T11:03:48.886Z,27.13
2019-05-10T11:06:17.412Z,27.64
2019-05-10T11:08:46.194Z,27.58
2019-05-10T11:11:14.893Z,28.13
2019-05-10T11:13:45.935Z,28.03
2019-05-10T11:16:15.690Z,26.88
2019-05-10T11:18:44.473Z,27.68
2019-05-10T11:21:12.979Z,28.50
2019-05-10T11:23:42.106Z,29.57
2019-05-10T11:26:10.977Z,29.74
2019-05-10T11:28:43.882Z,29.02
2019-05-10T11:31:11.378Z,28.52
2019-05-10T11:33:41.577Z,28.25
2019-05-10T11:36:11.429Z,28.30
2019-05-10T11:38:42.050Z,27.41
2019-05-10T11:41:13.647Z,27.48
2019-05-10T11:43:41.936Z,27.07
2019-05-10T11:46:11.761Z,24.86
2019-05-10T11:48:42.214Z,25.49
2019-05-10T11:51:12.449Z,26.50
2019-05-10T11:56:13.989Z,27.35
2019-05-10T11:58:45.967Z,27.19
2019-05-10T12:01:17.351Z,26.47
2019-05-10T12:03:42.387Z,27.52
2019-05-10T12:06:12.194Z,28.56
2019-05-10T12:08:41.840Z,28.79
2019-05-10T12:11:25.508Z,28.69
2019-05-10T12:13:40.890Z,28.26
2019-05-10T12:16:12.434Z,27.93
2019-05-10T12:18:46.314Z,27.89
2019-05-10T12:21:11.333Z,27.58
2019-05-10T12:23:49.383Z,26.50
2019-05-10T12:26:18.021Z,27.23
2019-05-10T12:28:40.917Z,25.47
2019-05-10T12:31:15.126Z,26.29
2019-05-10T12:33:42.900Z,27.21
2019-05-10T12:36:22.377Z,27.62
2019-05-10T12:38:41.766Z,27.32
2019-05-10T12:41:10.283Z,26.98
2019-05-10T12:43:40.871Z,26.55
2019-05-10T12:46:11.107Z,25.94
2019-05-10T12:48:39.900Z,26.15
2019-05-10T12:51:11.863Z,26.85
2019-05-10T12:53:44.466Z,27.07
2019-05-10T12:56:08.883Z,27.22
2019-05-10T12:58:37.425Z,26.69
2019-05-10T13:01:05.926Z,26.73
2019-05-10T13:03:34.440Z,26.71
2019-05-10T13:06:02.974Z,26.41
2019-05-10T13:08:31.806Z,26.49
2019-05-10T13:11:00.465Z,27.59
2019-05-10T13:13:29.975Z,27.67
2019-05-10T13:16:03.713Z,27.85
2019-05-10T13:18:53.395Z,28.01
2019-05-10T13:20:59.656Z,27.86
2019-05-10T13:23:28.148Z,28.05
2019-05-10T13:25:56.766Z,28.96
2019-05-10T13:28:25.266Z,28.23
2019-05-10T13:30:53.829Z,28.27
2019-05-10T13:33:28.888Z,27.51
2019-05-10T13:35:56.497Z,26.15
2019-05-10T13:38:23.161Z,26.25
2019-05-10T13:40:51.660Z,27.04
2019-05-10T13:43:26.434Z,27.66
2019-05-10T13:45:50.462Z,27.20
2019-05-10T13:48:18.973Z,27.17
2019-05-10T13:50:47.497Z,27.94
2019-05-10T13:53:21.077Z,28.16
2019-05-10T13:55:46.220Z,27.96
2019-05-10T13:58:15.105Z,27.29
2019-05-10T14:00:44.118Z,26.93
2019-05-10T14:03:13.571Z,26.81
2019-05-10T14:05:42.168Z,26.99
2019-05-10T14:08:10.668Z,27.36
2019-05-10T14:10:39.181Z,27.19
2019-05-10T14:13:07.664Z,26.48
2019-05-10T14:15:36.163Z,27.33
2019-05-10T14:18:04.686Z,27.97
2019-05-10T14:20:33.209Z,27.47
2019-05-10T14:23:01.779Z,27.14
2019-05-10T14:25:36.152Z,27.70
2019-05-10T14:28:01.250Z,27.84
2019-05-10T14:30:30.251Z,27.03
2019-05-10T14:32:58.737Z,26.99
2019-05-10T14:35:27.396Z,27.19
2019-05-10T14:38:06.916Z,27.62
2019-05-10T14:40:28.428Z,27.49
2019-05-10T14:42:56.569Z,27.66
2019-05-10T14:45:25.165Z,27.18
2019-05-10T14:47:53.731Z,26.83
2019-05-10T14:50:26.233Z,27.10
2019-05-10T14:52:52.719Z,27.65
2019-05-10T14:55:21.260Z,28.06
2019-05-10T14:57:49.794Z,27.62
2019-05-10T15:00:18.590Z,27.28
2019-05-10T15:02:47.093Z,27.01
2019-05-10T15:05:18.029Z,26.96
2019-05-10T15:07:45.828Z,27.12
2019-05-10T15:10:14.377Z,26.55
2019-05-10T15:12:43.154Z,26.04
2019-05-10T15:15:11.739Z,25.65
2019-05-10T15:17:40.611Z,25.65
2019-05-10T15:20:09.125Z,25.92
2019-05-10T15:22:37.694Z,26.56
2019-05-10T15:25:06.581Z,26.39
2019-05-10T15:27:35.090Z,26.02
2019-05-10T15:30:05.995Z,25.84
2019-05-10T15:32:34.098Z,25.98
2019-05-10T15:35:07.161Z,25.99
2019-05-10T15:37:32.932Z,25.91
2019-05-10T15:40:06.238Z,25.78
2019-05-10T15:42:36.342Z,25.47
2019-05-10T15:45:05.161Z,25.40
2019-05-10T15:47:32.350Z,25.29
2019-05-10T15:50:01.620Z,25.43
2019-05-10T15:52:30.269Z,25.42
2019-05-10T15:54:58.817Z,25.37
2019-05-10T15:57:27.322Z,25.48
2019-05-10T15:59:59.123Z,25.31
2019-05-10T16:02:26.470Z,25.07
2019-05-10T16:04:55.756Z,24.39
2019-05-10T16:07:24.360Z,24.71
2019-05-10T16:09:54.472Z,25.51
2019-05-10T16:12:23.083Z,24.95
2019-05-10T16:14:51.654Z,24.97
2019-05-10T16:17:23.832Z,24.85
2019-05-10T16:19:58.897Z,24.92
2019-05-10T16:22:25.383Z,24.99
2019-05-10T16:24:50.907Z,24.94
2019-05-10T16:27:19.436Z,24.50
2019-05-10T16:29:47.981Z,23.98
2019-05-10T16:32:16.523Z,23.72
2019-05-10T16:34:45.046Z,23.34
2019-05-10T16:37:13.640Z,23.31
2019-05-10T16:39:42.223Z,23.26
2019-05-10T16:42:10.829Z,23.49
2019-05-10T16:44:39.489Z,23.52
2019-05-10T16:47:08.176Z,23.54
2019-05-10T16:49:36.682Z,23.35
2019-05-10T16:52:05.230Z,23.55
2019-05-10T16:54:33.740Z,23.62
2019-05-10T16:57:02.393Z,23.62
2019-05-10T16:59:31.457Z,22.96
2019-05-10T17:02:04.125Z,23.27
2019-05-10T17:04:32.091Z,23.64
2019-05-10T17:07:00.889Z,23.92
2019-05-10T17:09:29.439Z,23.87
2019-05-10T17:11:59.182Z,23.62
2019-05-10T17:14:27.837Z,23.40
2019-05-10T17:16:58.805Z,23.27
2019-05-10T17:19:27.996Z,23.38
2019-05-10T17:21:57.459Z,23.44
2019-05-10T17:24:26.096Z,23.54
2019-05-10T17:26:54.678Z,23.57
2019-05-10T17:29:23.232Z,23.49
2019-05-10T17:31:51.740Z,23.60
2019-05-10T17:34:29.031Z,23.37
2019-05-10T17:36:51.566Z,23.24
2019-05-10T17:39:26.073Z,23.14
2019-05-10T17:41:51.375Z,22.99
2019-05-10T17:44:23.132Z,23.00
2019-05-10T17:46:55.439Z,23.01
2019-05-10T17:49:20.969Z,22.95
2019-05-10T17:51:49.491Z,22.82
2019-05-10T17:54:17.994Z,22.79
2019-05-10T17:56:46.559Z,22.78
2019-05-10T17:59:15.137Z,22.73
2019-05-10T18:01:43.725Z,22.59
2019-05-10T18:04:12.231Z,22.53
2019-05-10T18:06:40.734Z,22.36
2019-05-10T18:09:09.471Z,22.25
2019-05-10T18:11:42.779Z,22.25
2019-05-10T18:14:12.499Z,22.29
2019-05-10T18:16:41.801Z,22.27
2019-05-10T18:19:08.735Z,22.27
2019-05-10T18:21:37.232Z,22.19
2019-05-10T18:24:05.816Z,22.02
2019-05-10T18:26:39.713Z,21.88
2019-05-10T18:29:04.583Z,21.85
2019-05-10T18:31:33.092Z,21.67
2019-05-10T18:34:01.576Z,21.42
2019-05-10T18:36:50.303Z,21.32
2019-05-10T18:39:00.734Z,21.22
2019-05-10T18:41:29.384Z,21.27
2019-05-10T18:43:57.894Z,21.23
2019-05-10T18:46:26.406Z,21.22
2019-05-10T18:48:54.987Z,21.24
2019-05-10T18:51:24.569Z,21.21
2019-05-10T18:53:53.772Z,21.09
2019-05-10T18:56:25.446Z,20.95
2019-05-10T18:58:52.563Z,20.95
2019-05-10T19:01:21.076Z,20.85
2019-05-10T19:03:49.691Z,20.84
2019-05-10T19:06:18.212Z,20.88
2019-05-10T19:08:47.031Z,20.78
2019-05-10T19:11:15.632Z,20.76
2019-05-10T19:13:48.024Z,20.72
2019-05-10T19:16:14.456Z,20.68
2019-05-10T19:18:42.954Z,20.64
2019-05-10T19:21:11.506Z,20.64
2019-05-10T19:23:40.015Z,20.62
2019-05-10T19:26:08.549Z,20.54
2019-05-10T19:28:37.047Z,20.52
2019-05-10T19:31:05.559Z,19.96
2019-05-10T19:33:36.631Z,19.94
2019-05-10T19:36:12.545Z,18.93
2019-05-10T19:38:34.865Z,18.97
2019-05-10T19:41:03.646Z,19.13
2019-05-10T19:43:32.151Z,18.89
2019-05-10T19:46:00.708Z,19.31
2019-05-10T19:48:35.133Z,19.61
2019-05-10T19:51:02.899Z,19.81
2019-05-10T19:53:29.885Z,19.98
2019-05-10T19:55:59.213Z,20.02
2019-05-10T19:58:32.310Z,20.01
2019-05-10T20:00:58.258Z,20.02
2019-05-10T20:03:27.125Z,20.03
2019-05-10T20:05:55.652Z,20.04
2019-05-10T20:08:24.226Z,20.08
2019-05-10T20:10:52.741Z,20.09
2019-05-10T20:13:21.259Z,20.08
2019-05-10T20:15:50.176Z,19.91
2019-05-10T20:18:18.701Z,20.07
2019-05-10T20:20:47.229Z,20.08
2019-05-10T20:23:15.734Z,19.97
2019-05-10T20:25:44.602Z,19.88
2019-05-10T20:28:13.119Z,19.82
2019-05-10T20:30:41.680Z,19.84
2019-05-10T20:33:10.247Z,19.88
2019-05-10T20:35:38.995Z,19.90
2019-05-10T20:38:07.517Z,19.83
2019-05-10T20:40:37.220Z,19.79
2019-05-10T20:43:05.850Z,19.77
2019-05-10T20:45:34.345Z,19.61
2019-05-10T20:48:02.876Z,19.54
2019-05-10T20:50:31.361Z,19.49
2019-05-10T20:52:59.889Z,19.49
2019-05-10T20:55:28.370Z,19.47
2019-05-10T20:57:56.875Z,19.47
2019-05-10T21:00:25.408Z,19.29
2019-05-10T21:02:54.343Z,19.20
2019-05-10T21:05:22.889Z,19.16
2019-05-10T21:07:51.393Z,19.20
2019-05-10T21:10:19.941Z,19.20
2019-05-10T21:12:48.763Z,19.20
2019-05-10T21:15:17.301Z,19.08
2019-05-10T21:17:46.041Z,18.92
2019-05-10T21:20:14.689Z,18.76
2019-05-10T21:22:43.205Z,18.71
2019-05-10T21:25:11.710Z,18.71
2019-05-10T21:27:40.536Z,18.73
2019-05-10T21:30:09.211Z,18.76
2019-05-10T21:32:37.807Z,18.39
2019-05-10T21:35:06.316Z,18.26
2019-05-10T21:37:35.169Z,18.29
2019-05-10T21:40:03.804Z,18.34
2019-05-10T21:42:32.318Z,17.45
2019-05-10T21:45:01.100Z,16.58
2019-05-10T21:47:30.054Z,16.73
2019-05-10T21:49:58.601Z,17.11
2019-05-10T21:52:27.341Z,17.32
2019-05-10T21:54:55.857Z,17.51
2019-05-10T21:57:24.351Z,17.66
2019-05-10T21:59:53.041Z,17.76
2019-05-10T22:02:21.566Z,17.80
2019-05-10T22:04:50.159Z,17.74
2019-05-10T22:07:18.691Z,17.73
2019-05-10T22:09:47.281Z,17.75
2019-05-10T22:12:15.783Z,17.74
2019-05-10T22:14:44.718Z,17.66
2019-05-10T22:17:13.216Z,17.63
2019-05-10T22:19:41.728Z,17.63
2019-05-10T22:22:10.262Z,17.53
2019-05-10T22:24:38.774Z,17.32
2019-05-10T22:27:07.614Z,17.18
2019-05-10T22:29:36.125Z,17.06
2019-05-10T22:32:04.627Z,17.04
2019-05-10T22:34:33.157Z,16.91
2019-05-10T22:37:01.694Z,16.72
2019-05-10T22:39:30.270Z,16.65
2019-05-10T22:41:58.840Z,16.79
2019-05-10T22:44:27.371Z,16.92
2019-05-10T22:46:55.911Z,17.03
2019-05-10T22:49:24.455Z,17.04
2019-05-10T22:51:52.951Z,17.08
2019-05-10T22:54:21.460Z,17.12
2019-05-10T22:56:50.417Z,17.12
2019-05-10T22:59:18.943Z,17.10
2019-05-10T23:01:47.485Z,17.08
2019-05-10T23:04:16.021Z,17.09
2019-05-10T23:06:44.570Z,17.06
2019-05-10T23:09:24.305Z,17.04
2019-05-10T23:11:43.397Z,17.08
2019-05-10T23:14:11.916Z,17.06
2019-05-10T23:16:40.433Z,16.92
2019-05-10T23:19:08.952Z,16.93
2019-05-10T23:21:37.472Z,16.95
2019-05-10T23:24:10.720Z,16.99
2019-05-10T23:26:39.229Z,17.05
2019-05-10T23:29:07.755Z,17.07
2019-05-10T23:31:36.557Z,16.99
2019-05-10T23:34:05.422Z,16.85
2019-05-10T23:36:33.930Z,16.70
2019-05-10T23:39:02.837Z,16.63
2019-05-10T23:41:31.354Z,16.60
2019-05-10T23:43:59.865Z,16.54
2019-05-10T23:46:28.413Z,16.44
2019-05-10T23:49:00.170Z,16.34
2019-05-10T23:51:28.677Z,15.65
2019-05-10T23:53:57.204Z,15.73
2019-05-10T23:56:25.732Z,15.78
2019-05-10T23:58:54.226Z,15.79
